Big Bear Station Historical Data
Daily Summary for January 11, 2019 Units:  English    Metric   Both
Next Day »
Daily Weekly Monthly Yearly Custom
  High: Low: Average:
Temperature: 46.6 °F 15.1 °F 30 °F
Dew Point: 24.8 °F 10.2 °F 16 °F
Humidity: 88% 30% 60%
Wind Speed: 7.3mph 0.0mph 1.2mph
Wind Gust: -999.0mph - -
Wind- - SW
Pressure: 23.54 in 23.40 in -
Precipitation: 0.00 in    
Historical Graphs
 
 
Tabular Data for January 11, 2019
Time Temperature Dew Point Pressure Wind Wind Speed Wind Gust Humidity Rainfall Rate (Hourly)
00:09 20.1 °F 14.9 °F 23.53 in Calm   -999.0 mph 80% 0.00 in
00:24 19.4 °F 14.5 °F 23.53 in Calm   -999.0 mph 81% 0.00 in
00:39 18.9 °F 14.3 °F 23.53 in Calm   -999.0 mph 82% 0.00 in
00:54 19.0 °F 14.4 °F 23.53 in Calm   -999.0 mph 82% 0.00 in
01:09 19.6 °F 14.4 °F 23.54 in Calm   -999.0 mph 80% 0.00 in
01:25 18.7 °F 13.8 °F 23.54 in Calm   -999.0 mph 81% 0.00 in
01:40 18.7 °F 14.4 °F 23.54 in Calm   -999.0 mph 83% 0.00 in
01:55 18.5 °F 13.9 °F 23.54 in Calm   -999.0 mph 82% 0.00 in
02:10 18.9 °F 14.0 °F 23.54 in Calm   -999.0 mph 81% 0.00 in
02:25 17.8 °F 13.2 °F 23.54 in Calm   -999.0 mph 82% 0.00 in
02:41 18.0 °F 14.0 °F 23.54 in Calm   -999.0 mph 84% 0.00 in
02:56 17.4 °F 13.7 °F 23.53 in Calm   -999.0 mph 85% 0.00 in
03:11 17.1 °F 12.8 °F 23.53 in Calm   -999.0 mph 83% 0.00 in
03:26 17.1 °F 12.8 °F 23.52 in Calm   -999.0 mph 83% 0.00 in
03:41 16.9 °F 12.9 °F 23.51 in Calm   -999.0 mph 84% 0.00 in
03:57 17.1 °F 13.6 °F 23.51 in Calm   -999.0 mph 86% 0.00 in
04:12 16.5 °F 13.0 °F 23.51 in Calm   -999.0 mph 86% 0.00 in
04:27 16.2 °F 12.5 °F 23.50 in Calm   -999.0 mph 85% 0.00 in
04:42 15.8 °F 12.1 °F 23.50 in Calm   -999.0 mph 85% 0.00 in
04:57 15.6 °F 12.2 °F 23.50 in Calm   -999.0 mph 86% 0.00 in
05:13 16.0 °F 12.6 °F 23.50 in Calm   -999.0 mph 86% 0.00 in
05:28 16.0 °F 12.3 °F 23.50 in Calm   -999.0 mph 85% 0.00 in
05:43 16.0 °F 12.0 °F 23.50 in Calm   -999.0 mph 84% 0.00 in
05:58 15.3 °F 11.3 °F 23.51 in Calm   -999.0 mph 84% 0.00 in
06:14 15.1 °F 11.4 °F 23.51 in Calm   -999.0 mph 85% 0.00 in
06:29 15.8 °F 12.6 °F 23.51 in Calm   -999.0 mph 87% 0.00 in
06:44 15.4 °F 11.2 °F 23.51 in Calm   -999.0 mph 83% 0.00 in
06:59 15.3 °F 12.1 °F 23.50 in Calm   -999.0 mph 87% 0.00 in
07:14 15.4 °F 12.5 °F 23.51 in Calm   -999.0 mph 88% 0.00 in
07:30 16.3 °F 13.1 °F 23.51 in Calm   -999.0 mph 87% 0.00 in
07:45 16.2 °F 13.0 °F 23.51 in Calm   -999.0 mph 87% 0.00 in
08:00 17.2 °F 13.5 °F 23.51 in Calm   -999.0 mph 85% 0.00 in
08:15 18.0 °F 14.8 °F 23.51 in Calm   -999.0 mph 87% 0.00 in
08:30 19.2 °F 15.7 °F 23.52 in Calm   -999.0 mph 86% 0.00 in
08:46 21.4 °F 17.0 °F 23.52 in Calm   -999.0 mph 83% 0.00 in
09:01 23.0 °F 18.0 °F 23.53 in Calm   -999.0 mph 81% 0.00 in
09:16 25.3 °F 19.7 °F 23.53 in Calm   -999.0 mph 79% 0.00 in
09:31 27.0 °F 18.8 °F 23.53 in Calm   -999.0 mph 71% 0.00 in
09:46 29.3 °F 21.1 °F 23.54 in Calm   -999.0 mph 71% 0.00 in
10:02 31.6 °F 20.8 °F 23.53 in Calm   -999.0 mph 64% 0.00 in
10:17 34.5 °F 24.3 °F 23.53 in Calm   -999.0 mph 66% 0.00 in
10:33 39.6 °F 14.8 °F 23.52 in North 2.7 mph -999.0 mph 36% 0.00 in
10:48 43.0 °F 14.4 °F 23.52 in West 2.2 mph -999.0 mph 31% 0.00 in
11:03 44.1 °F 15.4 °F 23.51 in Calm   -999.0 mph 31% 0.00 in
11:18 44.1 °F 16.8 °F 23.51 in NW 3.7 mph -999.0 mph 33% 0.00 in
11:34 44.6 °F 16.5 °F 23.50 in West 2.2 mph -999.0 mph 32% 0.00 in
11:49 44.6 °F 17.2 °F 23.49 in West 3.2 mph -999.0 mph 33% 0.00 in
12:04 43.7 °F 16.5 °F 23.48 in WSW 3.2 mph -999.0 mph 33% 0.00 in
12:19 43.2 °F 15.3 °F 23.48 in North 2.2 mph -999.0 mph 32% 0.00 in
12:35 43.7 °F 15.0 °F 23.48 in WNW 7.3 mph -999.0 mph 31% 0.00 in
12:50 44.4 °F 14.9 °F 23.48 in NW 3.2 mph -999.0 mph 30% 0.00 in
13:05 45.1 °F 16.2 °F 23.47 in ENE 1.1 mph -999.0 mph 31% 0.00 in
13:21 45.7 °F 17.5 °F 23.47 in WNW 2.7 mph -999.0 mph 32% 0.00 in
13:36 45.5 °F 16.6 °F 23.46 in WSW 1.1 mph -999.0 mph 31% 0.00 in
13:51 45.5 °F 18.0 °F 23.46 in Calm   -999.0 mph 33% 0.00 in
14:07 45.7 °F 18.9 °F 23.46 in SSW 1.1 mph -999.0 mph 34% 0.00 in
14:22 46.6 °F 20.4 °F 23.46 in Calm   -999.0 mph 35% 0.00 in
14:37 45.1 °F 22.8 °F 23.46 in NW 3.2 mph -999.0 mph 41% 0.00 in
14:52 45.5 °F 24.8 °F 23.46 in SW 2.2 mph -999.0 mph 44% 0.00 in
15:07 45.0 °F 24.4 °F 23.46 in Calm   -999.0 mph 44% 0.00 in
15:22 43.7 °F 23.7 °F 23.46 in West 2.2 mph -999.0 mph 45% 0.00 in
15:38 43.5 °F 24.6 °F 23.45 in Calm   -999.0 mph 47% 0.00 in
15:53 43.7 °F 24.8 °F 23.45 in Calm   -999.0 mph 47% 0.00 in
16:08 42.1 °F 24.8 °F 23.45 in WNW 3.2 mph -999.0 mph 50% 0.00 in
16:23 39.7 °F 24.8 °F 23.45 in SSW 2.2 mph -999.0 mph 55% 0.00 in
16:39 39.7 °F 20.1 °F 23.45 in Calm   -999.0 mph 45% 0.00 in
16:54 38.1 °F 19.6 °F 23.45 in Calm   -999.0 mph 47% 0.00 in
17:09 36.0 °F 19.6 °F 23.45 in South 2.2 mph -999.0 mph 51% 0.00 in
17:24 35.2 °F 18.4 °F 23.45 in Calm   -999.0 mph 50% 0.00 in
17:39 34.3 °F 18.9 °F 23.44 in Calm   -999.0 mph 53% 0.00 in
17:55 34.0 °F 20.4 °F 23.44 in SE 2.2 mph -999.0 mph 57% 0.00 in
18:10 33.8 °F 18.9 °F 23.45 in Calm   -999.0 mph 54% 0.00 in
18:26 33.8 °F 17.1 °F 23.44 in Calm   -999.0 mph 50% 0.00 in
18:41 33.8 °F 20.6 °F 23.44 in Calm   -999.0 mph 58% 0.00 in
18:56 32.9 °F 18.1 °F 23.44 in Calm   -999.0 mph 54% 0.00 in
19:12 32.2 °F 17.8 °F 23.44 in SSW 2.2 mph -999.0 mph 55% 0.00 in
19:27 32.9 °F 16.3 °F 23.43 in SSW 2.2 mph -999.0 mph 50% 0.00 in
19:42 32.7 °F 15.6 °F 23.43 in South 2.7 mph -999.0 mph 49% 0.00 in
19:57 32.4 °F 15.8 °F 23.43 in SSW 2.2 mph -999.0 mph 50% 0.00 in
20:13 31.8 °F 14.8 °F 23.42 in South 3.2 mph -999.0 mph 49% 0.00 in
20:28 33.8 °F 12.6 °F 23.43 in South 3.2 mph -999.0 mph 41% 0.00 in
20:43 33.4 °F 12.7 °F 23.42 in SSW 3.2 mph -999.0 mph 42% 0.00 in
20:59 32.9 °F 13.9 °F 23.42 in South 2.7 mph -999.0 mph 45% 0.00 in
21:14 31.6 °F 15.5 °F 23.41 in SSW 3.7 mph -999.0 mph 51% 0.00 in
21:29 32.9 °F 12.3 °F 23.42 in SSW 3.2 mph -999.0 mph 42% 0.00 in
21:44 33.8 °F 11.4 °F 23.42 in South 1.7 mph -999.0 mph 39% 0.00 in
22:00 35.1 °F 10.2 °F 23.42 in South 3.2 mph -999.0 mph 35% 0.00 in
22:15 35.1 °F 10.2 °F 23.42 in South 4.2 mph -999.0 mph 35% 0.00 in
22:31 34.9 °F 13.0 °F 23.41 in SSW 2.7 mph -999.0 mph 40% 0.00 in
22:46 35.1 °F 13.2 °F 23.41 in SSW 1.7 mph -999.0 mph 40% 0.00 in
23:01 35.2 °F 12.7 °F 23.41 in South 3.2 mph -999.0 mph 39% 0.00 in
23:16 35.2 °F 14.4 °F 23.41 in SSE 2.7 mph -999.0 mph 42% 0.00 in
23:31 33.6 °F 16.9 °F 23.40 in South 4.2 mph -999.0 mph 50% 0.00 in
23:47 33.4 °F 17.2 °F 23.40 in SSE 3.7 mph -999.0 mph 51% 0.00 in
Big Bear CA Weather